createdAt,value
2023-01-23T00:01:40.056Z,-1.50
2023-01-23T00:04:07.959Z,-1.50
2023-01-23T00:06:35.887Z,-1.60
2023-01-23T00:09:04.293Z,-1.60
2023-01-23T00:11:34.087Z,-1.50
2023-01-23T00:14:03.854Z,-1.50
2023-01-23T00:16:33.571Z,-1.50
2023-01-23T00:19:01.647Z,-1.50
2023-01-23T00:21:31.157Z,-1.40
2023-01-23T00:24:01.381Z,-1.40
2023-01-23T00:26:32.615Z,-1.50
2023-01-23T00:29:02.483Z,-1.50
2023-01-23T00:31:37.106Z,-1.50
2023-01-23T00:34:07.317Z,-1.60
2023-01-23T00:36:36.677Z,-1.60
2023-01-23T00:39:06.936Z,-1.70
2023-01-23T00:41:35.210Z,-1.70
2023-01-23T00:44:04.480Z,-1.70
2023-01-23T00:46:32.352Z,-1.70
2023-01-23T00:49:00.323Z,-1.60
2023-01-23T00:51:28.307Z,-1.60
2023-01-23T00:53:56.248Z,-1.60
2023-01-23T00:56:24.227Z,-1.60
2023-01-23T00:58:52.093Z,-1.60
2023-01-23T01:01:22.622Z,-1.60
2023-01-23T01:03:51.114Z,-1.60
2023-01-23T01:06:18.887Z,-1.60
2023-01-23T01:08:49.305Z,-1.60
2023-01-23T01:11:17.178Z,-1.60
2023-01-23T01:13:45.513Z,-1.60
2023-01-23T01:16:13.949Z,-1.60
2023-01-23T01:18:43.159Z,-1.60
2023-01-23T01:21:13.610Z,-1.60
2023-01-23T01:23:42.452Z,-1.60
2023-01-23T01:26:10.984Z,-1.70
2023-01-23T01:28:40.361Z,-1.70
2023-01-23T01:31:11.133Z,-1.70
2023-01-23T01:33:39.196Z,-1.70
2023-01-23T01:36:11.309Z,-1.60
2023-01-23T01:38:39.403Z,-1.60
2023-01-23T01:41:08.069Z,-1.60
2023-01-23T01:43:36.919Z,-1.60
2023-01-23T01:46:14.976Z,-1.60
2023-01-23T01:48:48.481Z,-1.60
2023-01-23T01:51:24.023Z,-1.60
2023-01-23T01:54:00.405Z,-1.60
2023-01-23T01:56:30.128Z,-1.60
2023-01-23T01:58:59.518Z,-1.60
2023-01-23T02:01:28.198Z,-1.60
2023-01-23T02:03:56.785Z,-1.70
2023-01-23T02:06:26.907Z,-1.70
2023-01-23T02:09:01.852Z,-1.60
2023-01-23T02:11:29.828Z,-1.60
2023-01-23T02:13:57.848Z,-1.60
2023-01-23T02:16:29.770Z,-1.60
2023-01-23T02:19:01.583Z,-1.50
2023-01-23T02:21:30.938Z,-1.60
2023-01-23T02:24:19.602Z,-1.60
2023-01-23T02:26:48.914Z,-1.60
2023-01-23T02:29:19.125Z,-1.50
2023-01-23T02:31:47.378Z,-1.50
2023-01-23T02:34:15.772Z,-1.60
2023-01-23T02:36:48.913Z,-1.60
2023-01-23T02:39:18.209Z,-1.80
2023-01-23T02:41:49.665Z,-1.60
2023-01-23T02:44:19.782Z,-1.60
2023-01-23T02:46:47.699Z,-1.60
2023-01-23T02:49:15.547Z,-1.60
2023-01-23T02:51:43.352Z,-1.60
2023-01-23T02:54:11.197Z,-1.60
2023-01-23T02:56:39.018Z,-1.70
2023-01-23T02:59:30.816Z,-1.80
2023-01-23T03:01:58.921Z,-1.70
2023-01-23T03:04:26.717Z,-1.80
2023-01-23T03:06:54.576Z,-1.70
2023-01-23T03:09:23.002Z,-1.60
2023-01-23T03:11:52.117Z,-1.50
2023-01-23T03:14:23.169Z,-1.60
2023-01-23T03:16:53.561Z,-1.60
2023-01-23T03:19:23.470Z,-1.60
2023-01-23T03:21:51.901Z,-1.60
2023-01-23T03:24:20.595Z,-1.50
2023-01-23T03:26:50.068Z,-1.50
2023-01-23T03:29:36.704Z,-1.50
2023-01-23T03:32:06.701Z,-1.50
2023-01-23T03:34:34.885Z,-1.50
2023-01-23T03:37:03.414Z,-1.50
2023-01-23T03:39:48.961Z,-1.50
2023-01-23T03:42:17.111Z,-1.50
2023-01-23T03:44:45.006Z,-1.50
2023-01-23T03:47:14.145Z,-1.50
2023-01-23T03:49:41.962Z,-1.50
2023-01-23T03:52:09.822Z,-1.50
2023-01-23T03:54:37.763Z,-1.50
2023-01-23T03:57:05.658Z,-1.70
2023-01-23T03:59:33.682Z,-1.60
2023-01-23T04:02:04.790Z,-1.60
2023-01-23T04:04:34.456Z,-1.60
2023-01-23T04:07:03.082Z,-1.50
2023-01-23T04:09:31.285Z,-1.50
2023-01-23T04:12:00.330Z,-1.50
2023-01-23T04:14:30.376Z,-1.40
2023-01-23T04:16:59.237Z,-1.50
2023-01-23T04:19:26.993Z,-1.50
2023-01-23T04:21:56.122Z,-1.80
2023-01-23T04:24:24.131Z,-1.70
2023-01-23T04:26:52.180Z,-1.60
2023-01-23T04:29:20.121Z,-1.60
2023-01-23T04:31:48.089Z,-1.60
2023-01-23T04:34:15.915Z,-1.50
2023-01-23T04:36:43.817Z,-1.50
2023-01-23T04:39:12.928Z,-1.50
2023-01-23T04:41:40.722Z,-1.50
2023-01-23T04:44:24.279Z,-1.50
2023-01-23T04:46:54.157Z,-1.40
2023-01-23T04:49:23.041Z,-1.50
2023-01-23T04:51:51.738Z,-1.50
2023-01-23T04:54:22.310Z,-1.50
2023-01-23T04:56:50.317Z,-1.50
2023-01-23T04:59:18.184Z,-1.50
2023-01-23T05:01:46.391Z,-1.40
2023-01-23T05:04:14.236Z,-1.40
2023-01-23T05:06:42.093Z,-1.40
2023-01-23T05:09:09.992Z,-1.50
2023-01-23T05:11:39.127Z,-1.40
2023-01-23T05:14:07.131Z,-1.40
2023-01-23T05:16:35.025Z,-1.50
2023-01-23T05:19:02.966Z,-1.50
2023-01-23T05:21:30.920Z,-1.40
2023-01-23T05:23:58.714Z,-1.40
2023-01-23T05:26:26.574Z,-1.40
2023-01-23T05:28:55.798Z,-1.40
2023-01-23T05:31:23.790Z,-1.40
2023-01-23T05:33:51.625Z,-1.40
2023-01-23T05:36:19.402Z,-1.50
2023-01-23T05:38:47.304Z,-1.50
2023-01-23T05:41:15.172Z,-1.90
2023-01-23T05:43:43.856Z,-2.10
2023-01-23T05:46:13.046Z,-1.80
2023-01-23T05:48:40.844Z,-1.80
2023-01-23T05:51:08.837Z,-1.50
2023-01-23T05:53:36.631Z,-1.40
2023-01-23T05:56:07.373Z,-1.50
2023-01-23T05:58:35.265Z,-1.50
2023-01-23T06:01:03.480Z,-1.80
2023-01-23T06:03:33.064Z,-1.70
2023-01-23T06:06:02.122Z,-1.50
2023-01-23T06:08:30.203Z,-1.50
2023-01-23T06:10:59.374Z,-1.40
2023-01-23T06:13:27.694Z,-1.40
2023-01-23T06:15:55.802Z,-1.30
2023-01-23T06:18:23.851Z,-1.30
2023-01-23T06:20:58.878Z,-1.30
2023-01-23T06:23:26.726Z,-1.40
2023-01-23T06:25:54.562Z,-1.40
2023-01-23T06:28:22.347Z,-1.70
2023-01-23T06:30:50.416Z,-1.50
2023-01-23T06:33:18.514Z,-1.50
2023-01-23T06:35:46.393Z,-1.40
2023-01-23T06:38:15.550Z,-1.50
2023-01-23T06:40:44.552Z,-1.60
2023-01-23T06:43:12.301Z,-1.40
2023-01-23T06:45:40.113Z,-1.50
2023-01-23T06:48:08.118Z,-1.40
2023-01-23T06:50:35.869Z,-1.30
2023-01-23T06:53:03.643Z,-1.40
2023-01-23T06:55:32.837Z,-1.50
2023-01-23T06:58:01.000Z,-1.40
2023-01-23T07:00:28.996Z,-1.40
2023-01-23T07:02:58.932Z,-1.50
2023-01-23T07:05:26.773Z,-1.50
2023-01-23T07:07:54.572Z,-1.40
2023-01-23T07:10:22.965Z,-1.80
2023-01-23T07:12:52.293Z,-1.90
2023-01-23T07:15:20.064Z,-2.00
2023-01-23T07:17:47.884Z,-1.80
2023-01-23T07:20:15.759Z,-1.70
2023-01-23T07:22:43.634Z,-1.50
2023-01-23T07:25:11.490Z,-2.00
2023-01-23T07:27:42.464Z,-2.10
2023-01-23T07:30:13.150Z,-2.00
2023-01-23T07:32:40.998Z,-1.90
2023-01-23T07:35:10.220Z,-1.90
2023-01-23T07:37:38.107Z,-1.80
2023-01-23T07:40:06.879Z,-1.60
2023-01-23T07:42:34.676Z,-2.00
2023-01-23T07:45:02.499Z,-1.90
2023-01-23T07:47:31.694Z,-1.50
2023-01-23T07:49:59.415Z,-1.40
2023-01-23T07:52:27.290Z,-1.30
2023-01-23T07:54:55.126Z,-1.50
2023-01-23T07:57:22.893Z,-1.40
2023-01-23T07:59:50.652Z,-1.80
2023-01-23T08:02:18.542Z,-1.70
2023-01-23T08:04:47.693Z,-1.50
2023-01-23T08:07:15.451Z,-1.50
2023-01-23T08:09:43.282Z,-1.60
2023-01-23T08:12:12.313Z,-1.70
2023-01-23T08:14:40.754Z,-1.90
2023-01-23T08:17:08.527Z,-2.00
2023-01-23T08:19:36.282Z,-1.90
2023-01-23T08:22:05.376Z,-1.90
2023-01-23T08:24:33.229Z,-1.80
2023-01-23T08:27:00.999Z,-1.90
2023-01-23T08:29:28.754Z,-1.60
2023-01-23T08:31:56.593Z,-1.50
2023-01-23T08:34:24.896Z,-1.50
2023-01-23T08:36:52.659Z,-1.30
2023-01-23T08:39:21.858Z,-1.50
2023-01-23T08:41:49.625Z,-1.50
2023-01-23T08:44:17.382Z,-1.40
2023-01-23T08:46:46.709Z,-1.60
2023-01-23T08:49:14.600Z,-1.70
2023-01-23T08:51:42.428Z,-1.50
2023-01-23T08:54:10.159Z,-1.50
2023-01-23T08:56:40.844Z,-1.30
2023-01-23T08:59:09.010Z,-1.30
2023-01-23T09:01:36.815Z,-1.20
2023-01-23T09:04:04.793Z,-1.30
2023-01-23T09:06:32.542Z,-1.30
2023-01-23T09:09:00.320Z,-1.40
2023-01-23T09:11:28.111Z,-1.40
2023-01-23T09:13:57.853Z,-1.30
2023-01-23T09:16:25.709Z,-1.30
2023-01-23T09:18:55.312Z,-1.40
2023-01-23T09:21:23.074Z,-1.30
2023-01-23T09:23:50.821Z,-1.10
2023-01-23T09:26:19.971Z,-1.10
2023-01-23T09:28:47.913Z,-1.30
2023-01-23T09:31:17.589Z,-1.20
2023-01-23T09:33:45.524Z,-1.20
2023-01-23T09:36:13.699Z,-1.00
2023-01-23T09:38:41.509Z,-1.10
2023-01-23T09:41:12.618Z,-0.90
2023-01-23T09:43:46.321Z,-1.00
2023-01-23T09:46:21.461Z,-0.90
2023-01-23T09:48:53.710Z,-0.80
2023-01-23T09:51:26.546Z,-0.60
2023-01-23T09:53:58.147Z,-0.70
2023-01-23T09:56:31.776Z,-0.90
2023-01-23T09:59:04.989Z,-0.90
2023-01-23T10:01:34.203Z,-1.00
2023-01-23T10:04:03.060Z,-1.00
2023-01-23T10:06:33.241Z,-1.00
2023-01-23T10:09:27.275Z,-1.00
2023-01-23T10:12:02.545Z,-1.00
2023-01-23T10:15:03.165Z,-0.80
2023-01-23T10:17:40.094Z,-0.80
2023-01-23T10:20:33.018Z,-0.70
2023-01-23T10:23:08.811Z,-0.80
2023-01-23T10:25:40.875Z,-0.90
2023-01-23T10:28:30.994Z,-0.80
2023-01-23T10:31:02.132Z,-0.90
2023-01-23T10:33:38.302Z,-1.00
2023-01-23T10:36:23.712Z,-1.00
2023-01-23T10:39:01.249Z,-1.00
2023-01-23T10:41:29.071Z,-0.90
2023-01-23T10:43:57.976Z,-0.70
2023-01-23T10:46:32.669Z,-0.60
2023-01-23T10:49:02.835Z,-0.60
2023-01-23T10:51:36.418Z,-0.70
2023-01-23T10:54:16.992Z,-0.60
2023-01-23T10:56:58.121Z,-0.60
2023-01-23T10:59:32.468Z,-0.70
2023-01-23T11:02:20.200Z,-0.60
2023-01-23T11:04:52.631Z,-0.40
2023-01-23T11:07:22.744Z,-0.50
2023-01-23T11:09:56.770Z,-0.40
2023-01-23T11:12:26.194Z,-0.20
2023-01-23T11:15:13.396Z,-0.30
2023-01-23T11:17:43.429Z,-0.20
2023-01-23T11:20:26.392Z,-0.40
2023-01-23T11:23:03.727Z,-0.30
2023-01-23T11:25:33.478Z,-0.40
2023-01-23T11:28:03.089Z,-0.40
2023-01-23T11:30:45.699Z,-0.20
2023-01-23T11:33:18.070Z,-0.10
2023-01-23T11:35:55.716Z,-0.20
2023-01-23T11:38:30.876Z,-0.10
2023-01-23T11:40:59.389Z,-0.20
2023-01-23T11:43:27.379Z,-0.40
2023-01-23T11:46:09.268Z,-0.40
2023-01-23T11:48:50.424Z,-0.20
2023-01-23T11:51:24.280Z,-0.20
2023-01-23T11:54:04.597Z,-0.30
2023-01-23T11:56:57.121Z,-0.40
2023-01-23T11:59:52.953Z,-0.30
2023-01-23T12:02:58.516Z,-0.40
2023-01-23T12:06:19.660Z,-0.50
2023-01-23T12:08:57.387Z,-0.40
2023-01-23T12:11:27.684Z,-0.30
2023-01-23T12:14:05.117Z,-0.40
2023-01-23T12:16:47.971Z,-0.30
2023-01-23T12:19:28.406Z,-0.20
2023-01-23T12:22:03.473Z,-0.20
2023-01-23T12:24:49.072Z,-0.10
2023-01-23T12:27:22.586Z,0.00
2023-01-23T12:30:13.518Z,-0.10
2023-01-23T12:32:55.334Z,0.00
2023-01-23T12:35:36.664Z,0.00
2023-01-23T12:38:30.090Z,0.00
2023-01-23T12:41:16.041Z,0.00
2023-01-23T12:43:51.860Z,0.00
2023-01-23T12:46:25.966Z,0.10
2023-01-23T12:49:00.926Z,0.10
2023-01-23T12:51:34.878Z,0.20
2023-01-23T12:54:07.638Z,0.30
2023-01-23T12:56:39.665Z,0.30
2023-01-23T12:59:14.054Z,0.30
2023-01-23T13:01:56.788Z,0.40
2023-01-23T13:04:38.035Z,0.20
2023-01-23T13:07:21.893Z,0.20
2023-01-23T13:10:06.429Z,0.20
2023-01-23T13:12:35.886Z,0.30
2023-01-23T13:15:38.799Z,0.30
2023-01-23T13:18:23.340Z,0.30
2023-01-23T13:21:16.187Z,0.30
2023-01-23T13:23:44.147Z,0.30
2023-01-23T13:26:36.192Z,0.10
2023-01-23T13:29:07.485Z,0.10
2023-01-23T13:31:40.015Z,0.10
2023-01-23T13:34:39.450Z,0.10
2023-01-23T13:37:55.417Z,0.00
2023-01-23T13:40:24.954Z,0.10
2023-01-23T13:42:52.886Z,0.10
2023-01-23T13:45:35.743Z,0.10
2023-01-23T14:20:20.007Z,0.10
2023-01-23T14:22:48.116Z,0.10
2023-01-23T14:25:18.298Z,0.10
2023-01-23T14:27:54.702Z,0.20
2023-01-23T14:30:26.510Z,0.20
2023-01-23T14:32:56.379Z,0.20
2023-01-23T14:35:27.211Z,0.20
2023-01-23T14:38:04.035Z,0.20
2023-01-23T14:40:46.667Z,0.20
2023-01-23T14:43:19.709Z,0.20
2023-01-23T14:45:50.501Z,0.30
2023-01-23T14:48:22.401Z,0.20
2023-01-23T14:50:50.254Z,0.20
2023-01-23T14:53:18.474Z,0.20
2023-01-23T14:55:49.586Z,0.20
2023-01-23T14:58:23.479Z,0.20
2023-01-23T15:00:54.333Z,0.20
2023-01-23T15:03:44.410Z,0.30
2023-01-23T15:06:15.735Z,0.20
2023-01-23T15:08:43.724Z,0.20
2023-01-23T15:11:14.704Z,0.30
2023-01-23T15:13:46.638Z,0.30
2023-01-23T15:16:18.204Z,0.20
2023-01-23T15:18:58.464Z,0.20
2023-01-23T15:21:29.372Z,0.20
2023-01-23T15:24:18.346Z,0.10
2023-01-23T15:27:04.450Z,0.10
2023-01-23T15:29:33.425Z,0.20
2023-01-23T15:32:01.924Z,0.10
2023-01-23T15:34:33.546Z,0.10
2023-01-23T15:37:08.494Z,0.10
2023-01-23T15:39:39.648Z,0.20
2023-01-23T15:42:27.425Z,0.10
2023-01-23T15:44:55.565Z,0.20
2023-01-23T15:47:23.330Z,0.20
2023-01-23T15:49:52.460Z,0.20
2023-01-23T15:52:23.215Z,0.20
2023-01-23T15:54:53.676Z,0.10
2023-01-23T15:57:21.599Z,0.10
2023-01-23T15:59:49.397Z,0.10
2023-01-23T16:02:29.944Z,0.20
2023-01-23T16:05:00.998Z,0.10
2023-01-23T16:07:34.174Z,0.20
2023-01-23T16:10:03.686Z,0.10
2023-01-23T16:12:32.681Z,0.20
2023-01-23T16:15:00.462Z,0.20
2023-01-23T16:17:28.225Z,0.10
2023-01-23T16:19:55.980Z,0.10
2023-01-23T16:22:29.037Z,0.10
2023-01-23T16:24:58.044Z,0.10
2023-01-23T16:27:27.390Z,0.20
2023-01-23T16:29:56.314Z,0.10
2023-01-23T16:32:24.944Z,0.10
2023-01-23T16:34:52.868Z,0.20
2023-01-23T16:37:20.716Z,0.10
2023-01-23T16:39:49.844Z,0.10
2023-01-23T16:42:23.115Z,0.10
2023-01-23T16:44:51.364Z,0.10
2023-01-23T16:47:19.252Z,0.10
2023-01-23T16:49:52.595Z,0.10
2023-01-23T16:52:22.249Z,0.10
2023-01-23T16:54:53.015Z,0.10
2023-01-23T16:57:21.990Z,0.10
2023-01-23T16:59:50.807Z,0.10
2023-01-23T17:02:23.338Z,0.10
2023-01-23T17:04:51.303Z,0.10
2023-01-23T17:07:20.302Z,0.10
2023-01-23T17:09:49.161Z,0.10
2023-01-23T17:12:23.023Z,0.10
2023-01-23T17:14:52.357Z,0.10
2023-01-23T17:17:27.692Z,0.10
2023-01-23T17:19:55.689Z,0.10
2023-01-23T17:22:25.907Z,0.20
2023-01-23T17:24:54.008Z,0.10
2023-01-23T17:27:23.393Z,0.10
2023-01-23T17:29:51.153Z,0.10
2023-01-23T17:32:27.745Z,0.20
2023-01-23T17:34:55.744Z,0.20
2023-01-23T17:37:24.341Z,0.20
2023-01-23T17:39:52.304Z,0.20
2023-01-23T17:42:21.774Z,-0.10
2023-01-23T17:44:51.054Z,0.20
2023-01-23T17:47:19.318Z,0.20
2023-01-23T17:49:51.388Z,0.20
2023-01-23T17:52:21.577Z,0.20
2023-01-23T17:54:49.552Z,0.20
2023-01-23T17:57:17.281Z,0.20
2023-01-23T17:59:45.166Z,0.20
2023-01-23T18:02:27.322Z,0.20
2023-01-23T18:04:55.301Z,0.20
2023-01-23T18:07:23.197Z,0.20
2023-01-23T18:09:52.295Z,0.10
2023-01-23T18:12:29.614Z,0.10
2023-01-23T18:15:06.284Z,0.10
2023-01-23T18:17:44.645Z,0.20
2023-01-23T18:20:20.576Z,0.20
2023-01-23T18:22:49.151Z,0.10
2023-01-23T18:25:19.308Z,0.20
2023-01-23T18:27:50.801Z,0.20
2023-01-23T18:30:24.899Z,0.20
2023-01-23T18:33:12.023Z,0.10
2023-01-23T18:35:59.209Z,0.20
2023-01-23T18:38:34.174Z,0.20
2023-01-23T18:41:11.213Z,0.20
2023-01-23T18:43:40.781Z,0.20
2023-01-23T18:46:13.223Z,0.20
2023-01-23T18:48:44.940Z,0.20
2023-01-23T18:51:25.107Z,0.20
2023-01-23T18:53:59.822Z,0.20
2023-01-23T18:56:35.305Z,0.20
2023-01-23T18:59:14.165Z,0.20
2023-01-23T19:01:51.969Z,0.20
2023-01-23T19:04:30.382Z,0.20
2023-01-23T19:06:58.929Z,0.10
2023-01-23T19:09:28.305Z,0.20
2023-01-23T19:12:24.210Z,0.20
2023-01-23T19:15:07.620Z,0.20
2023-01-23T19:17:44.284Z,0.20
2023-01-23T19:20:23.336Z,0.10
2023-01-23T19:23:02.581Z,0.20
2023-01-23T19:25:30.836Z,0.10
2023-01-23T19:28:00.704Z,0.10
2023-01-23T19:30:29.131Z,0.10
2023-01-23T19:32:56.905Z,0.10
2023-01-23T19:35:26.223Z,0.20
2023-01-23T19:37:53.949Z,0.20
2023-01-23T19:40:21.864Z,0.20
2023-01-23T19:42:58.656Z,0.20
2023-01-23T19:45:33.861Z,0.20
2023-01-23T19:48:01.653Z,0.20
2023-01-23T19:50:30.919Z,0.20
2023-01-23T19:53:00.119Z,0.20
2023-01-23T19:55:30.379Z,0.20
2023-01-23T19:57:58.714Z,0.20
2023-01-23T20:00:27.774Z,0.20
2023-01-23T20:02:55.544Z,0.20
2023-01-23T20:05:23.910Z,0.20
2023-01-23T20:07:53.993Z,0.20
2023-01-23T20:10:22.300Z,0.20
2023-01-23T20:12:52.486Z,0.10
2023-01-23T20:15:21.946Z,0.10
2023-01-23T20:17:50.355Z,0.20
2023-01-23T20:20:19.442Z,0.10
2023-01-23T20:22:47.250Z,0.10
2023-01-23T20:25:17.815Z,0.10
2023-01-23T20:27:46.002Z,0.20
2023-01-23T20:30:16.576Z,0.20
2023-01-23T20:32:44.777Z,0.20
2023-01-23T20:35:12.958Z,0.20
2023-01-23T20:37:40.733Z,0.20
2023-01-23T20:40:11.294Z,0.20
2023-01-23T20:42:41.232Z,0.20
2023-01-23T20:45:09.818Z,0.10
2023-01-23T20:47:38.604Z,0.10
2023-01-23T20:50:07.046Z,0.20
2023-01-23T20:52:52.259Z,0.10
2023-01-23T20:55:20.512Z,0.10
2023-01-23T20:58:07.416Z,0.20
2023-01-23T21:00:35.170Z,0.10
2023-01-23T21:03:03.039Z,0.20
2023-01-23T21:05:30.842Z,0.20
2023-01-23T21:07:58.687Z,0.20
2023-01-23T21:10:26.651Z,0.20
2023-01-23T21:12:55.835Z,0.20
2023-01-23T21:15:24.032Z,0.10
2023-01-23T21:17:51.941Z,0.10
2023-01-23T21:20:20.036Z,0.10
2023-01-23T21:22:47.998Z,0.10
2023-01-23T21:25:15.935Z,0.20
2023-01-23T21:27:43.692Z,0.20
2023-01-23T21:30:13.759Z,0.20
2023-01-23T21:32:41.697Z,0.10
2023-01-23T21:35:09.800Z,0.10
2023-01-23T21:37:38.057Z,0.10
2023-01-23T21:40:07.193Z,0.10
2023-01-23T21:42:34.987Z,0.10
2023-01-23T21:45:02.748Z,0.10
2023-01-23T21:47:31.900Z,0.10
2023-01-23T21:49:59.758Z,0.10
2023-01-23T21:52:29.530Z,0.10
2023-01-23T21:54:57.874Z,0.10
2023-01-23T21:57:25.664Z,0.10
2023-01-23T22:00:07.433Z,0.10
2023-01-23T22:02:36.577Z,0.10
2023-01-23T22:05:04.488Z,0.10
2023-01-23T22:07:32.378Z,0.20
2023-01-23T22:10:00.203Z,0.10
2023-01-23T22:12:28.812Z,0.10
2023-01-23T22:14:56.737Z,0.10
2023-01-23T22:17:24.784Z,0.20
2023-01-23T22:19:53.985Z,0.20
2023-01-23T22:22:21.752Z,0.20
2023-01-23T22:24:49.581Z,0.10
2023-01-23T22:27:17.374Z,0.10
2023-01-23T22:29:45.261Z,0.10
2023-01-23T22:32:13.120Z,0.20
2023-01-23T22:34:40.897Z,0.10
2023-01-23T22:37:10.033Z,0.20
2023-01-23T22:39:37.802Z,0.20
2023-01-23T22:42:05.881Z,0.20
2023-01-23T22:44:33.690Z,0.20
2023-01-23T22:47:01.516Z,0.10
2023-01-23T22:49:29.381Z,0.10
2023-01-23T22:51:57.209Z,0.20
2023-01-23T22:54:26.428Z,0.20
2023-01-23T22:56:54.193Z,0.10
2023-01-23T23:01:57.320Z,0.10
2023-01-23T23:04:25.015Z,0.10
2023-01-23T23:06:52.825Z,0.20
2023-01-23T23:09:20.574Z,0.10
2023-01-23T23:11:51.663Z,0.10
2023-01-23T23:14:19.616Z,0.10
2023-01-23T23:16:47.386Z,0.10
2023-01-23T23:19:15.209Z,0.10
2023-01-23T23:21:42.974Z,0.10
2023-01-23T23:24:13.935Z,0.10
2023-01-23T23:26:42.082Z,0.10
2023-01-23T23:29:11.229Z,0.10
2023-01-23T23:31:39.161Z,0.10
2023-01-23T23:34:07.078Z,0.10
2023-01-23T23:36:35.109Z,0.10
2023-01-23T23:39:03.187Z,0.10
2023-01-23T23:41:30.995Z,0.10
2023-01-23T23:43:58.781Z,0.20
2023-01-23T23:46:28.334Z,0.10
2023-01-23T23:48:56.211Z,0.10
2023-01-23T23:51:26.422Z,0.10
2023-01-23T23:53:55.477Z,0.10
2023-01-23T23:56:24.647Z,0.10
2023-01-23T23:58:52.629Z,0.10
